Time;durP1;ratioP1;P1;durP2;ratioP2;P2;SDS_P1;SDS_P2;PMS_P1;PMS_P2;Temp;Humidity;BMP_temperature;BMP_pressure;BME280_temperature;BME280_humidity;BME280_pressure;Samples;Min_cycle;Max_cycle;Signal;HPM_P1;HPM_P2
2024/01/31 00:02:00;;;;;;;5.50;1.95;;;;;;;5.88;100.00;103308.38;4953096;28;20388;-96
2024/01/31 00:07:16;;;;;;;6.93;1.80;;;;;;;5.84;100.00;103302.22;4946278;29;20052;-95
2024/01/31 00:09:52;;;;;;;5.18;1.88;;;;;;;5.84;100.00;103312.53;4954659;28;20058;-95
2024/01/31 00:12:27;;;;;;;;;;;;;;;;;;;;;
2024/01/31 00:15:08;;;;;;;;;;;;;;;;;;;;;
2024/01/31 00:17:43;;;;;;;4.53;1.50;;;;;;;5.81;100.00;103301.25;4952344;29;20465;-95
2024/01/31 00:20:20;;;;;;;3.95;1.40;;;;;;;5.79;100.00;103306.38;4951929;29;20054;-95
2024/01/31 00:23:07;;;;;;;;;;;;;;;;;;;;;
2024/01/31 00:26:02;;;;;;;;;;;;;;;;;;;;;
2024/01/31 00:28:39;;;;;;;4.07;1.10;;;;;;;5.78;100.00;103326.13;4953495;29;20037;-95
2024/01/31 00:31:11;;;;;;;3.92;1.40;;;;;;;5.76;100.00;103327.78;4951028;29;20039;-94
2024/01/31 00:33:49;;;;;;;;;;;;;;;;;;;;;
2024/01/31 00:36:21;;;;;;;5.13;1.23;;;;;;;5.74;100.00;103332.00;4952634;29;20019;-95
2024/01/31 00:38:59;;;;;;;;;;;;;;;;;;;;;
2024/01/31 00:41:30;;;;;;;3.03;1.00;;;;;;;5.75;100.00;103338.94;4952596;29;20023;-95
2024/01/31 00:44:08;;;;;;;3.00;1.00;;;;;;;5.75;100.00;103340.66;4937147;29;20031;-94
2024/01/31 00:46:59;;;;;;;;;;;;;;;;;;;;;
2024/01/31 00:49:34;;;;;;;2.55;1.02;;;;;;;5.73;100.00;103350.06;4953719;29;20476;-95
2024/01/31 00:52:09;;;;;;;;;;;;;;;;;;;;;
2024/01/31 00:54:55;;;;;;;;;;;;;;;;;;;;;
2024/01/31 00:57:31;;;;;;;;;;;;;;;;;;;;;
2024/01/31 01:00:23;;;;;;;3.78;1.05;;;;;;;5.70;100.00;103347.34;4953615;29;20045;-95
2024/01/31 01:02:58;;;;;;;3.47;1.13;;;;;;;5.69;100.00;103354.25;4946817;29;20043;-96
2024/01/31 01:05:28;;;;;;;2.80;0.80;;;;;;;5.71;100.00;103351.69;4953833;29;20051;-94
2024/01/31 01:08:20;;;;;;;2.58;0.75;;;;;;;5.68;100.00;103357.66;4935608;29;20023;-93
2024/01/31 01:11:02;;;;;;;;;;;;;;;;;;;;;
2024/01/31 01:13:55;;;;;;;4.25;0.80;;;;;;;5.68;100.00;103356.75;4952744;29;20396;-95
2024/01/31 01:16:51;;;;;;;;;;;;;;;;;;;;;
2024/01/31 01:19:29;;;;;;;;;;;;;;;;;;;;;
2024/01/31 01:22:24;;;;;;;2.55;0.80;;;;;;;5.62;100.00;103363.47;4952496;28;20051;-95
2024/01/31 01:24:54;;;;;;;;;;;;;;;;;;;;;
2024/01/31 01:27:55;;;;;;;;;;;;;;;;;;;;;
2024/01/31 01:30:36;;;;;;;;;;;;;;;;;;;;;
2024/01/31 01:36:03;;;;;;;3.80;0.63;;;;;;;5.58;100.00;103361.59;4939910;29;20027;-94
2024/01/31 01:38:39;;;;;;;;;;;;;;;;;;;;;
2024/01/31 01:41:12;;;;;;;3.58;0.80;;;;;;;5.55;100.00;103360.63;4951601;28;20034;-95
2024/01/31 01:43:44;;;;;;;2.25;0.80;;;;;;;5.55;100.00;103361.50;4935784;29;20049;-96
2024/01/31 01:46:20;;;;;;;2.80;0.70;;;;;;;5.54;100.00;103370.06;4935655;29;20034;-95
2024/01/31 01:48:57;;;;;;;;;;;;;;;;;;;;;
2024/01/31 01:51:46;;;;;;;4.30;0.70;;;;;;;5.53;100.00;103368.28;4951425;28;20041;-96
2024/01/31 01:54:21;;;;;;;5.00;0.68;;;;;;;5.54;100.00;103364.91;4952258;29;20058;-95
2024/01/31 01:56:49;;;;;;;4.65;0.90;;;;;;;5.54;100.00;103357.16;4952519;29;20031;-94
2024/01/31 01:59:15;;;;;;;2.50;0.82;;;;;;;5.58;100.00;103361.59;4936218;29;20030;-95
2024/01/31 02:01:43;;;;;;;3.10;0.80;;;;;;;5.59;100.00;103357.31;4952063;28;20027;-94
2024/01/31 02:04:12;;;;;;;1.75;0.80;;;;;;;5.60;100.00;103359.97;4934017;29;20027;-95
2024/01/31 02:06:47;;;;;;;1.25;0.70;;;;;;;5.63;100.00;103361.75;4934042;29;20066;-94
2024/01/31 02:09:13;;;;;;;3.85;0.80;;;;;;;5.62;100.00;103347.09;4951890;29;20037;-95
2024/01/31 02:11:48;;;;;;;4.47;0.90;;;;;;;5.62;100.00;103353.16;4952340;29;20020;-95
2024/01/31 02:14:13;;;;;;;3.30;0.93;;;;;;;5.65;100.00;103356.63;4958644;28;20023;-94
2024/01/31 02:16:38;;;;;;;2.85;0.73;;;;;;;5.66;100.00;103348.06;4950177;29;20388;-95
2024/01/31 02:19:08;;;;;;;3.45;0.95;;;;;;;5.70;100.00;103349.94;4934943;29;20034;-95
2024/01/31 02:21:37;;;;;;;3.08;0.90;;;;;;;5.69;100.00;103348.19;4952610;28;20086;-93
2024/01/31 02:24:02;;;;;;;2.15;0.70;;;;;;;5.71;100.00;103350.00;4943076;29;20027;-94
2024/01/31 02:26:27;;;;;;;3.20;1.00;;;;;;;5.72;100.00;103353.47;4946726;29;20035;-95
2024/01/31 02:28:55;;;;;;;4.63;0.77;;;;;;;5.72;100.00;103343.13;4936114;29;20034;-94
2024/01/31 02:31:23;;;;;;;2.17;1.00;;;;;;;5.74;100.00;103336.31;4935737;29;20586;-95
2024/01/31 02:33:51;;;;;;;2.10;0.80;;;;;;;5.76;100.00;103342.41;4929772;29;20085;-95
2024/01/31 02:36:16;;;;;;;4.40;1.10;;;;;;;5.80;100.00;103345.97;4935751;29;20027;-95
2024/01/31 02:38:42;;;;;;;1.45;0.85;;;;;;;5.80;100.00;103346.88;4952572;29;20034;-95
2024/01/31 02:41:20;;;;;;;3.30;0.82;;;;;;;5.82;100.00;103350.34;4934883;29;20460;-95
2024/01/31 02:43:55;;;;;;;2.95;1.40;;;;;;;5.83;100.00;103346.94;4948696;29;20077;-94
2024/01/31 02:46:25;;;;;;;2.97;1.08;;;;;;;5.83;100.00;103354.69;4950265;29;20499;-95
2024/01/31 02:49:03;;;;;;;;;;;;;;;;;;;;;
2024/01/31 02:51:29;;;;;;;4.40;1.10;;;;;;;5.84;100.00;103351.28;4955766;29;20039;-95
2024/01/31 02:54:07;;;;;;;;;;;;;;;;;;;;;
2024/01/31 02:56:46;;;;;;;5.70;1.85;;;;;;;5.85;100.00;103344.44;4956050;29;20029;-96
2024/01/31 02:59:29;;;;;;;;;;;;;;;;;;;;;
2024/01/31 03:02:07;;;;;;;4.38;1.70;;;;;;;5.84;100.00;103342.69;4955799;29;20026;-96
2024/01/31 03:04:49;;;;;;;;;;;;;;;;;;;;;
2024/01/31 03:07:31;;;;;;;5.15;1.80;;;;;;;5.86;100.00;103339.31;4955491;29;20019;-95
2024/01/31 03:09:59;;;;;;;4.30;1.23;;;;;;;5.84;100.00;103333.22;4954123;29;20055;-94
2024/01/31 03:12:34;;;;;;;;;;;;;;;;;;;;;
2024/01/31 03:15:03;;;;;;;3.88;1.50;;;;;;;5.81;100.00;103327.94;4955955;29;20480;-94
2024/01/31 03:17:35;;;;;;;5.68;1.45;;;;;;;5.84;100.00;103338.38;4938178;29;20031;-95
2024/01/31 03:20:05;;;;;;;2.97;1.38;;;;;;;5.80;100.00;103336.53;4938601;29;20449;-96
2024/01/31 03:22:40;;;;;;;5.65;1.50;;;;;;;5.80;100.00;103346.88;4938336;29;20031;-94
2024/01/31 03:25:07;;;;;;;6.28;1.40;;;;;;;5.78;100.00;103340.78;4955226;29;20050;-96
2024/01/31 03:27:36;;;;;;;4.43;1.50;;;;;;;5.75;100.00;103325.16;4955138;28;20061;-95
2024/01/31 03:30:02;;;;;;;4.60;1.40;;;;;;;5.75;100.00;103320.00;4954611;29;20030;-95
2024/01/31 03:32:35;;;;;;;4.93;1.48;;;;;;;5.72;100.00;103319.88;4937969;29;20539;-94
2024/01/31 03:35:01;;;;;;;2.15;1.20;;;;;;;5.73;100.00;103321.66;4953754;29;20035;-94
2024/01/31 03:37:37;;;;;;;5.20;1.30;;;;;;;5.73;100.00;103321.66;4954750;29;20045;-94
2024/01/31 03:40:25;;;;;;;3.33;1.13;;;;;;;5.69;100.00;103318.09;4937049;29;20033;-95
2024/01/31 03:42:53;;;;;;;3.97;1.40;;;;;;;5.69;100.00;103322.34;4937917;29;20034;-94
2024/01/31 03:45:18;;;;;;;3.55;1.08;;;;;;;5.68;100.00;103315.44;4938196;29;20027;-95
2024/01/31 03:47:54;;;;;;;4.22;1.10;;;;;;;5.66;100.00;103317.06;4960310;28;20036;-94
2024/01/31 03:50:19;;;;;;;2.92;1.25;;;;;;;5.64;100.00;103313.59;4938047;28;20110;-94
2024/01/31 03:53:00;;;;;;;;;;;;;;;;;;;;;
2024/01/31 03:55:39;;;;;;;;;;;;;;;;;;;;;
2024/01/31 03:58:07;;;;;;;4.28;1.48;;;;;;;5.64;100.00;103298.97;4954651;29;20026;-95
2024/01/31 04:00:32;;;;;;;3.60;1.20;;;;;;;5.64;100.00;103298.09;4936337;28;20042;-94
2024/01/31 04:02:58;;;;;;;3.47;1.42;;;;;;;5.59;100.00;103301.38;4953012;29;20031;-94
2024/01/31 04:05:28;;;;;;;7.97;1.73;;;;;;;5.59;100.00;103300.50;4937293;29;20477;-94
2024/01/31 04:08:03;;;;;;;;;;;;;;;;;;;;;
2024/01/31 04:10:36;;;;;;;4.55;1.60;;;;;;;5.61;100.00;103293.69;4953191;28;20378;-95
2024/01/31 04:13:05;;;;;;;4.10;1.42;;;;;;;5.60;100.00;103303.16;4954507;29;20042;-95
2024/01/31 04:15:32;;;;;;;5.22;2.10;;;;;;;5.62;100.00;103301.50;4937279;29;20118;-95
2024/01/31 04:18:08;;;;;;;;;;;;;;;;;;;;;
2024/01/31 04:20:47;;;;;;;6.82;3.17;;;;;;;5.60;100.00;103286.75;4953859;28;20033;-95
2024/01/31 04:23:15;;;;;;;6.70;3.20;;;;;;;5.60;100.00;103286.75;4963112;28;20082;-95
2024/01/31 04:25:43;;;;;;;6.55;3.00;;;;;;;5.58;100.00;103289.31;4937474;29;20023;-94
2024/01/31 04:28:20;;;;;;;6.28;3.17;;;;;;;5.58;100.00;103288.41;4935982;29;20029;-95
2024/01/31 04:30:50;;;;;;;8.52;3.33;;;;;;;5.58;100.00;103299.63;4936782;29;20023;-95
2024/01/31 04:33:26;;;;;;;;;;;;;;;;;;;;;
2024/01/31 04:35:59;;;;;;;5.35;2.90;;;;;;;5.58;100.00;103289.31;4953501;29;20049;-94
2024/01/31 04:38:37;;;;;;;;;;;;;;;;;;;;;
2024/01/31 04:41:34;;;;;;;8.73;3.38;;;;;;;5.55;100.00;103294.34;4954384;28;20041;-96
2024/01/31 04:44:10;;;;;;;6.65;2.90;;;;;;;5.55;100.00;103301.25;4946172;29;20027;-95
2024/01/31 04:46:52;;;;;;;5.97;2.28;;;;;;;5.53;100.00;103289.97;4956431;29;20031;-94
2024/01/31 04:49:34;;;;;;;6.13;1.95;;;;;;;5.52;100.00;103294.25;4939248;29;20028;-95
2024/01/31 04:52:14;;;;;;;4.75;2.08;;;;;;;5.52;100.00;103294.25;4937010;29;20429;-96
2024/01/31 04:54:57;;;;;;;;;;;;;;;;;;;;;
2024/01/31 04:57:44;;;;;;;;;;;;;;;;;;;;;
2024/01/31 05:00:28;;;;;;;;;;;;;;;;;;;;;
2024/01/31 05:03:07;;;;;;;;;;;;;;;;;;;;;
2024/01/31 05:05:46;;;;;;;;;;;;;;;;;;;;;
2024/01/31 05:08:54;;;;;;;3.53;1.95;;;;;;;5.46;100.00;103286.31;4951225;29;20040;-96
2024/01/31 05:11:32;;;;;;;;;;;;;;;;;;;;;
2024/01/31 05:14:03;;;;;;;2.78;1.38;;;;;;;5.44;100.00;103287.94;4952648;29;20053;-94
2024/01/31 05:16:39;;;;;;;;;;;;;;;;;;;;;
2024/01/31 05:19:14;;;;;;;;;;;;;;;;;;;;;
2024/01/31 05:22:13;;;;;;;;;;;;;;;;;;;;;
2024/01/31 05:24:52;;;;;;;;;;;;;;;;;;;;;
2024/01/31 05:27:41;;;;;;;;;;;;;;;;;;;;;
2024/01/31 05:30:07;;;;;;;5.93;2.03;;;;;;;5.43;100.00;103288.78;4952818;29;20101;-94
2024/01/31 05:32:32;;;;;;;5.28;1.90;;;;;;;5.42;100.00;103292.16;4946441;29;20129;-95
2024/01/31 05:35:31;;;;;;;;;;;;;;;;;;;;;
2024/01/31 05:37:59;;;;;;;6.75;2.20;;;;;;;5.39;100.00;103292.06;4950046;29;20039;-95
2024/01/31 05:40:44;;;;;;;5.55;2.00;;;;;;;5.37;100.00;103294.59;4953531;29;20385;-95
2024/01/31 05:43:10;;;;;;;5.60;1.85;;;;;;;5.37;100.00;103291.13;4935511;29;20442;-95
2024/01/31 05:45:45;;;;;;;6.35;2.10;;;;;;;5.36;100.00;103291.94;4936121;29;20027;-95
2024/01/31 05:48:20;;;;;;;;;;;;;;;;;;;;;
2024/01/31 05:50:46;;;;;;;5.70;2.38;;;;;;;5.34;100.00;103291.91;4951595;29;20027;-94
2024/01/31 05:53:21;;;;;;;4.70;2.25;;;;;;;5.34;100.00;103293.59;4934789;29;20110;-94
2024/01/31 05:55:49;;;;;;;5.53;2.17;;;;;;;5.34;100.00;103294.47;4952166;29;20054;-95
2024/01/31 05:58:25;;;;;;;;;;;;;;;;;;;;;
2024/01/31 06:00:51;;;;;;;5.68;2.13;;;;;;;5.32;100.00;103297.00;4951355;28;20491;-94
2024/01/31 06:03:30;;;;;;;;;;;;;;;;;;;;;
2024/01/31 06:05:56;;;;;;;6.20;2.22;;;;;;;5.31;100.00;103290.06;4952477;29;20023;-95
2024/01/31 06:08:33;;;;;;;;;;;;;;;;;;;;;
2024/01/31 06:11:06;;;;;;;5.35;2.58;;;;;;;5.28;100.00;103289.97;4951243;28;20409;-95
2024/01/31 06:13:32;;;;;;;5.93;2.55;;;;;;;5.27;100.00;103285.66;4934481;29;20031;-94
2024/01/31 06:15:59;;;;;;;6.20;2.33;;;;;;;5.29;100.00;103291.75;4935613;29;20522;-95
2024/01/31 06:18:37;;;;;;;;;;;;;;;;;;;;;
2024/01/31 06:21:08;;;;;;;7.57;2.47;;;;;;;5.30;100.00;103293.47;4951590;28;20049;-95
2024/01/31 06:23:36;;;;;;;7.95;2.50;;;;;;;5.31;100.00;103290.06;4943760;28;20039;-94
2024/01/31 06:26:02;;;;;;;6.15;2.78;;;;;;;5.30;100.00;103277.97;4955033;29;20106;-95
2024/01/31 06:28:38;;;;;;;;;;;;;;;;;;;;;
2024/01/31 06:31:15;;;;;;;8.30;3.10;;;;;;;5.28;100.00;103266.75;4955259;28;20106;-94
2024/01/31 06:33:54;;;;;;;;;;;;;;;;;;;;;
2024/01/31 06:36:27;;;;;;;8.98;3.28;;;;;;;5.27;100.00;103264.09;4956029;29;20027;-95
2024/01/31 06:38:58;;;;;;;7.13;3.10;;;;;;;5.24;100.00;103264.88;4954650;29;20096;-94
2024/01/31 06:41:23;;;;;;;8.60;3.35;;;;;;;5.23;100.00;103250.22;4939433;29;20027;-96
2024/01/31 06:43:48;;;;;;;8.50;3.30;;;;;;;5.21;100.00;103251.84;4938483;29;20041;-95
2024/01/31 06:46:47;;;;;;;;;;;;;;;;;;;;;
2024/01/31 06:49:17;;;;;;;6.72;3.45;;;;;;;5.22;100.00;103247.56;4954344;29;20031;-95
2024/01/31 06:51:45;;;;;;;10.32;4.00;;;;;;;5.23;100.00;103234.72;4938933;29;20480;-95
2024/01/31 06:54:15;;;;;;;10.13;4.10;;;;;;;5.20;100.00;103237.19;4955717;29;20031;-95
2024/01/31 06:56:40;;;;;;;7.88;3.88;;;;;;;5.19;100.00;103234.56;4954950;29;20039;-95
2024/01/31 06:59:11;;;;;;;11.43;4.43;;;;;;;5.18;100.00;103235.41;4953316;29;20046;-95
2024/01/31 07:01:39;;;;;;;9.35;3.92;;;;;;;5.17;100.00;103239.66;4954784;28;20033;-94
2024/01/31 07:04:22;;;;;;;;;;;;;;;;;;;;;
2024/01/31 07:06:57;;;;;;;10.23;4.05;;;;;;;5.16;100.00;103249.13;4955492;29;20030;-94
2024/01/31 07:09:29;;;;;;;11.25;3.95;;;;;;;5.20;100.00;103256.97;4937936;29;20385;-93
2024/01/31 07:11:54;;;;;;;;;;;;;;;5.27;100.00;103279.59;4955241;28;20087;-95
2024/01/31 07:14:25;;;;;;;9.68;3.80;;;;;;;5.26;100.00;103289.03;4965279;28;20317;-95
2024/01/31 07:17:10;;;;;;;10.32;4.13;;;;;;;5.30;100.00;103297.78;4937543;29;20627;-94
2024/01/31 07:19:38;;;;;;;10.57;4.10;;;;;;;5.31;100.00;103313.28;4937646;29;20034;-95
2024/01/31 07:22:06;;;;;;;10.65;4.82;;;;;;;5.35;100.00;103318.56;4954171;29;20054;-95
2024/01/31 07:24:33;;;;;;;10.75;4.88;;;;;;;5.36;100.00;103320.34;4935344;29;20046;-96
2024/01/31 07:26:59;;;;;;;11.80;4.45;;;;;;;5.38;100.00;103331.59;4955568;29;20029;-95
2024/01/31 07:29:26;;;;;;;12.65;4.90;;;;;;;5.41;100.00;103331.72;4937532;29;20043;-94
2024/01/31 07:31:52;;;;;;;13.18;5.22;;;;;;;5.43;100.00;103335.25;4937082;29;20063;-94
2024/01/31 07:34:19;;;;;;;11.50;4.72;;;;;;;5.45;100.00;103333.59;4938423;29;20176;-95
2024/01/31 07:36:45;;;;;;;14.30;5.57;;;;;;;5.49;100.00;103345.75;4942662;29;20035;-93
2024/01/31 07:39:11;;;;;;;11.25;5.75;;;;;;;5.48;100.00;103341.41;4937520;29;20023;-94
2024/01/31 07:41:36;;;;;;;14.18;5.75;;;;;;;5.49;100.00;103338.03;4937152;29;20081;-95
2024/01/31 07:44:03;;;;;;;12.70;5.53;;;;;;;5.53;100.00;103344.19;4936856;29;20050;-93
2024/01/31 07:46:29;;;;;;;13.38;6.38;;;;;;;5.53;100.00;103347.63;4953220;29;20102;-94
2024/01/31 07:48:55;;;;;;;15.73;6.47;;;;;;;5.54;100.00;103343.38;4954776;28;20034;-95
2024/01/31 07:51:20;;;;;;;15.65;7.03;;;;;;;5.55;100.00;103346.00;4955397;28;20039;-94
2024/01/31 07:54:01;;;;;;;;;;;;;;;;;;;;;
2024/01/31 07:56:36;;;;;;;;;;;;;;;;;;;;;
2024/01/31 07:59:06;;;;;;;14.88;7.07;;;;;;;5.60;100.00;103347.06;4953822;28;20023;-94
2024/01/31 08:01:34;;;;;;;15.60;7.05;;;;;;;5.61;100.00;103345.31;4954316;28;20031;-94
2024/01/31 08:04:04;;;;;;;14.23;6.95;;;;;;;5.61;100.00;103353.97;4936891;29;20110;-93
2024/01/31 08:06:39;;;;;;;;;;;;;;;;;;;;;
2024/01/31 08:09:06;;;;;;;14.60;6.80;;;;;;;5.62;100.00;103348.00;4953440;29;20035;-95
2024/01/31 08:11:31;;;;;;;17.38;7.10;;;;;;;5.65;100.00;103352.38;4937093;29;20038;-95
2024/01/31 08:13:59;;;;;;;15.60;7.10;;;;;;;5.65;100.00;103349.78;4952767;29;20019;-96
2024/01/31 08:16:24;;;;;;;15.40;7.35;;;;;;;5.65;100.00;103347.19;4935754;29;20500;-94
2024/01/31 08:18:50;;;;;;;13.95;7.43;;;;;;;5.65;100.00;103339.47;4954677;29;20024;-95
2024/01/31 08:21:15;;;;;;;15.20;7.63;;;;;;;5.66;100.00;103324.81;4934768;29;20062;-94
2024/01/31 08:23:40;;;;;;;18.45;7.30;;;;;;;5.66;100.00;103319.66;4936675;29;20019;-94
2024/01/31 08:26:07;;;;;;;15.70;7.43;;;;;;;5.65;100.00;103329.13;4948980;29;20036;-94
2024/01/31 08:28:35;;;;;;;18.20;7.50;;;;;;;5.69;100.00;103343.00;4964273;28;20128;-95
2024/01/31 08:31:00;;;;;;;15.82;7.65;;;;;;;5.68;100.00;103333.50;4931981;29;20043;-93
2024/01/31 08:33:25;;;;;;;17.63;7.68;;;;;;;5.69;100.00;103332.69;4935928;29;20067;-95
2024/01/31 08:35:51;;;;;;;15.40;7.43;;;;;;;5.70;100.00;103334.44;4937273;29;20027;-94
2024/01/31 08:38:16;;;;;;;17.95;8.35;;;;;;;5.70;100.00;103337.03;4953043;29;20023;-94
2024/01/31 08:40:45;;;;;;;17.58;8.10;;;;;;;5.71;100.00;103321.59;4952276;29;20027;-94
2024/01/31 08:43:20;;;;;;;;;;;;;;;;;;;;;
2024/01/31 08:45:48;;;;;;;16.95;7.95;;;;;;;5.72;100.00;103315.59;4951164;28;20019;-94
2024/01/31 08:48:15;;;;;;;16.98;7.75;;;;;;;5.71;100.00;103312.97;4934600;29;20721;-94
2024/01/31 11:22:54;;;;;;;17.08;8.18;;;;;;;6.64;100.00;103199.59;4946498;28;20501;-93
2024/01/31 11:25:27;;;;;;;14.60;8.23;;;;;;;6.65;100.00;103191.03;4930766;29;20063;-92
2024/01/31 11:33:06;;;;;;;;;;;;;;;;;;;;;
2024/01/31 11:35:44;;;;;;;15.20;8.35;;;;;;;6.59;98.64;103172.72;4816720;29;20084;-94
2024/01/31 11:38:23;;;;;;;13.57;8.13;;;;;;;6.59;98.62;103165.81;4844869;29;20053;-93
2024/01/31 11:40:54;;;;;;;14.13;8.63;;;;;;;6.57;97.90;103151.09;4897720;29;20040;-93
2024/01/31 11:43:22;;;;;;;13.48;8.43;;;;;;;6.55;97.36;103147.59;4905893;29;20039;-93
2024/01/31 11:45:48;;;;;;;14.25;8.63;;;;;;;6.55;97.01;103143.31;4913142;29;20024;-94
2024/01/31 11:48:14;;;;;;;15.05;8.93;;;;;;;6.58;96.60;103133.03;4927319;29;20043;-92
2024/01/31 11:50:42;;;;;;;18.05;10.18;;;;;;;6.57;96.95;103130.41;4933746;29;20028;-92
2024/01/31 11:53:07;;;;;;;17.67;9.48;;;;;;;6.55;96.54;103112.28;4914450;29;20115;-93
2024/01/31 11:55:36;;;;;;;15.30;9.07;;;;;;;6.54;96.59;103115.72;4915019;29;20084;-93
2024/01/31 11:58:16;;;;;;;;;;;;;;;;;;;;;
2024/01/31 12:00:55;;;;;;;;;;;;;;;;;;;;;
2024/01/31 12:03:27;;;;;;;16.00;9.98;;;;;;;6.56;96.62;103089.88;4935245;29;20426;-93
2024/01/31 12:05:56;;;;;;;;;;;;;;;6.61;96.67;103096.06;4933490;29;20093;-91
2024/01/31 12:08:33;;;;;;;13.95;9.15;;;;;;;6.56;94.20;103083.00;4912547;29;19919;-92
2024/01/31 12:11:07;;;;;;;14.00;8.80;;;;;;;6.50;90.58;103083.69;4912774;29;20071;-93
2024/01/31 12:14:58;;;;;;;;;;;;;;;;;;;;;
2024/01/31 12:20:55;;;;;;;;;;;;;;;;;;;;;
2024/01/31 12:23:42;;;;;;;13.32;7.90;;;;;;;6.52;91.03;103081.16;4930396;29;20039;-94
2024/01/31 12:26:37;;;;;;;;;;;;;;;;;;;;;
2024/01/31 12:29:32;;;;;;;11.35;7.93;;;;;;;6.53;90.34;103073.44;4940704;29;20114;-92
2024/01/31 12:32:29;;;;;;;;;;;;;;;;;;;;;
2024/01/31 12:35:07;;;;;;;12.20;7.90;;;;;;;6.49;88.19;103071.59;4946624;29;20110;-93
2024/01/31 12:37:35;;;;;;;11.02;7.00;;;;;;;6.47;88.22;103057.78;4936091;29;20040;-92
2024/01/31 12:42:49;;;;;;;11.00;7.28;;;;;;;6.52;86.70;103053.56;4934784;29;20110;-92
2024/01/31 12:51:50;;;;;;;;;;;;;;;;;;;;;
2024/01/31 12:54:49;;;;;;;9.27;6.53;;;;;;;6.44;87.81;103037.00;5131341;27;20408;-92
2024/01/31 12:57:22;;;;;;;10.77;6.50;;;;;;;6.43;87.33;103045.59;5129596;27;20031;-94
2024/01/31 12:59:57;;;;;;;10.23;6.80;;;;;;;6.42;87.56;103043.84;5132757;27;20023;-92
2024/01/31 13:02:35;;;;;;;10.82;6.50;;;;;;;6.43;86.63;103040.41;5123455;27;20498;-91
2024/01/31 13:05:37;;;;;;;9.10;5.97;;;;;;;6.47;87.03;103046.53;5130904;27;20023;-92
2024/01/31 13:08:21;;;;;;;;;;;;;;;;;;;;;
2024/01/31 13:10:53;;;;;;;8.38;5.47;;;;;;;6.44;86.20;103052.50;5130866;28;20094;-93
2024/01/31 13:23:12;;;;;;;;;;;;;;;;;;;;;
2024/01/31 13:29:25;;;;;;;;;;;;;;;;;;;;;
2024/01/31 13:32:28;;;;;;;;;;;;;;;;;;;;;
2024/01/31 13:35:14;;;;;;;;;;;;;;;6.44;85.15;103020.59;5113246;28;20110;-95
2024/01/31 13:37:54;;;;;;;;;;;;;;;;;;;;;
2024/01/31 13:40:52;;;;;;;7.30;4.13;;;;;;;6.47;85.02;103010.34;5113687;27;20114;-95
2024/01/31 13:47:08;;;;;;;6.55;3.70;;;;;;;6.51;82.72;102997.53;5446377;23;20084;-94
2024/01/31 13:49:33;;;;;;;5.60;3.60;;;;;;;6.46;81.64;102988.78;5042878;28;20034;-94
2024/01/31 13:52:04;;;;;;;5.82;3.30;;;;;;;6.44;79.85;102993.03;5032790;28;20535;-94
2024/01/31 13:54:30;;;;;;;6.03;2.92;;;;;;;6.43;80.60;102987.81;5000517;28;20084;-93
2024/01/31 13:57:14;;;;;;;;;;;;;;;;;;;;;
2024/01/31 14:07:24;;;;;;;5.25;2.60;;;;;;;6.46;79.22;102962.94;5176981;23;20112;-94
2024/01/31 14:09:54;;;;;;;4.35;2.60;;;;;;;6.46;79.63;102959.44;5008514;28;20052;-96
2024/01/31 14:23:48;;;;;;;;;;;;;;;;;;;;;
2024/01/31 14:27:31;;;;;;;6.22;2.90;;;;;;;6.61;80.62;102941.72;5045145;28;20057;-94
2024/01/31 14:33:32;;;;;;;4.05;2.10;;;;;;;6.62;78.16;102933.13;4988560;28;20482;-92
2024/01/31 14:36:48;;;;;;;;;;;;;;;;;;;;;
2024/01/31 14:39:03;;;;;;;5.32;2.58;;;;;;;6.59;76.97;102927.03;5033710;28;20037;-94
2024/01/31 14:41:47;;;;;;;;;;;;;;;;;;;;;
2024/01/31 14:44:34;;;;;;;5.50;2.63;;;;;;;6.53;77.49;102887.25;5044388;28;20056;-93
2024/01/31 14:46:59;;;;;;;3.78;2.47;;;;;;;6.51;77.22;102899.25;5031734;28;20026;-93
2024/01/31 14:50:31;;;;;;;;;;;;;;;;;;;;;
2024/01/31 14:53:52;;;;;;;;;;;;;;;;;;;;;
2024/01/31 14:59:44;;;;;;;3.80;1.75;;;;;;;6.46;74.97;102875.03;4937038;29;20070;-94
2024/01/31 15:02:17;;;;;;;4.00;1.90;;;;;;;6.48;75.31;102880.22;4934037;29;20038;-93
2024/01/31 15:07:39;;;;;;;4.03;1.95;;;;;;;6.40;75.69;102874.84;5349723;22;20444;-93
2024/01/31 15:10:11;;;;;;;3.90;1.98;;;;;;;6.40;75.52;102879.16;5039474;28;20029;-93
2024/01/31 15:13:38;;;;;;;;;;;;;;;;;;;;;
2024/01/31 15:16:17;;;;;;;3.80;1.90;;;;;;;6.39;76.62;102886.03;5044176;28;20044;-93
2024/01/31 15:19:01;;;;;;;3.70;2.03;;;;;;;6.41;76.47;102881.78;5047253;28;20047;-96
2024/01/31 15:27:58;;;;;;;3.80;1.92;;;;;;;6.38;76.93;102887.75;4914879;29;20039;-94
2024/01/31 15:31:25;;;;;;;3.10;2.10;;;;;;;6.37;77.53;102887.69;4956999;28;20164;-95
2024/01/31 15:37:24;;;;;;;2.95;1.80;;;;;;;6.38;77.75;102877.41;5037321;28;20095;-94
2024/01/31 15:40:08;;;;;;;;;;;;;;;;;;;;;
2024/01/31 15:42:39;;;;;;;3.25;1.80;;;;;;;6.36;76.87;102867.84;5044996;28;20234;-96
2024/01/31 15:48:11;;;;;;;;;;;;;;;;;;;;;
2024/01/31 15:50:39;;;;;;;3.22;1.60;;;;;;;6.30;77.50;102862.56;5044291;28;21655;-94
2024/01/31 15:53:25;;;;;;;3.70;1.90;;;;;;;6.30;77.72;102868.59;5045984;28;20029;-95
2024/01/31 15:56:10;;;;;;;4.85;1.92;;;;;;;6.29;77.75;102868.56;5043998;28;20143;-96
2024/01/31 15:59:19;;;;;;;5.28;2.33;;;;;;;6.32;77.74;102871.22;5041949;28;20017;-93
2024/01/31 16:01:44;;;;;;;3.40;2.10;;;;;;;6.27;77.26;102877.97;5047073;28;20484;-94
2024/01/31 16:04:24;;;;;;;5.00;2.33;;;;;;;6.26;77.42;102865.88;5045711;28;20071;-95
2024/01/31 16:09:31;;;;;;;5.32;1.90;;;;;;;6.25;77.47;102865.00;5118265;22;20409;-92
2024/01/31 16:11:57;;;;;;;8.50;2.85;;;;;;;6.23;77.10;102861.53;5062563;28;20032;-94
2024/01/31 16:14:35;;;;;;;5.05;2.55;;;;;;;6.25;76.56;102858.97;5044324;28;20040;-94
2024/01/31 16:17:11;;;;;;;;;;;;;;;;;;;;;
2024/01/31 16:19:39;;;;;;;4.45;2.67;;;;;;;6.19;76.50;102859.69;5065334;28;20391;-94
2024/01/31 16:22:23;;;;;;;;;;;;;;;;;;;;;
2024/01/31 16:25:25;;;;;;;;;;;;;;;;;;;;;
2024/01/31 16:27:51;;;;;;;;;;;;;;;6.17;78.04;102841.53;5053382;28;20039;-93
2024/01/31 16:30:57;;;;;;;;;;;;;;;;;;;;;
2024/01/31 16:34:22;;;;;;;;;;;;;;;;;;;;;
2024/01/31 16:37:30;;;;;;;;;;;;;;;;;;;;;
2024/01/31 16:40:52;;;;;;;;;;;;;;;;;;;;;
2024/01/31 16:43:17;;;;;;;4.50;2.60;;;;;;;6.04;77.66;102824.88;5083109;22;20144;-96
2024/01/31 16:46:14;;;;;;;;;;;;;;;;;;;;;
2024/01/31 16:48:53;;;;;;;;;;;;;;;;;;;;;
2024/01/31 16:51:22;;;;;;;5.68;2.72;;;;;;;6.03;77.59;102806.75;5102721;22;20159;-93
2024/01/31 16:53:48;;;;;;;3.67;2.50;;;;;;;6.03;77.91;102801.56;5049719;28;20031;-93
2024/01/31 16:56:16;;;;;;;4.32;2.65;;;;;;;6.03;77.44;102788.66;5061449;28;20028;-94
2024/01/31 16:58:55;;;;;;;;;;;;;;;;;;;;;
2024/01/31 17:01:31;;;;;;;5.63;3.03;;;;;;;6.01;78.08;102792.91;5077121;28;20031;-95
2024/01/31 17:03:59;;;;;;;5.00;2.78;;;;;;;6.01;77.67;102796.38;5057171;28;20112;-93
2024/01/31 17:06:29;;;;;;;5.70;3.03;;;;;;;6.03;78.21;102788.66;5044231;28;20052;-94
2024/01/31 17:08:55;;;;;;;5.72;2.72;;;;;;;5.99;78.13;102763.53;5059806;28;20041;-92
2024/01/31 17:37:41;;;;;;;;;;;;;;;;;;;;;
2024/01/31 17:40:20;;;;;;;;;;;;;;;;;;;;;
2024/01/31 17:42:58;;;;;;;;;;;;;;;;;;;;;
2024/01/31 17:45:31;;;;;;;8.02;2.70;;;;;;;5.56;81.65;102720.31;5047321;28;20056;-95
2024/01/31 17:48:19;;;;;;;5.88;3.00;;;;;;;5.57;81.65;102711.75;5033652;28;20124;-96
2024/01/31 17:50:45;;;;;;;5.57;2.97;;;;;;;5.52;81.38;102709.88;5053965;28;20033;-95
2024/01/31 17:53:21;;;;;;;4.80;3.03;;;;;;;5.51;81.87;102729.66;5028710;28;20542;-96
2024/01/31 17:55:46;;;;;;;4.80;3.00;;;;;;;5.52;81.90;102739.13;5028685;28;20084;-93
2024/01/31 17:58:42;;;;;;;;;;;;;;;;;;;;;
2024/01/31 18:01:58;;;;;;;;;;;;;;;;;;;;;
2024/01/31 18:17:37;;;;;;;4.60;3.00;;;;;;;5.69;82.21;102738.69;4889273;29;20052;-91
2024/01/31 18:26:18;;;;;;;5.60;3.10;;;;;;;5.68;82.37;102713.72;5022173;28;20040;-94
2024/01/31 18:31:38;;;;;;;;;;;;;;;;;;;;;
2024/01/31 18:34:14;;;;;;;;;;;;;;;;;;;;;
2024/01/31 18:36:57;;;;;;;;;;;;;;;;;;;;;
2024/01/31 18:39:36;;;;;;;;;;;;;;;;;;;;;
2024/01/31 18:46:53;;;;;;;;;;;;;;;;;;;;;
2024/01/31 19:00:46;;;;;;;6.55;3.25;;;;;;;5.81;82.41;102671.84;4993269;28;20057;-92
2024/01/31 19:03:11;;;;;;;4.70;3.00;;;;;;;5.80;82.32;102661.50;4977562;28;20022;-93
2024/01/31 19:11:32;;;;;;;6.30;3.75;;;;;;;5.84;82.23;102630.59;4947332;29;20114;-90
2024/01/31 19:17:34;;;;;;;5.68;3.78;;;;;;;5.93;82.18;102605.00;4914758;29;20040;-92
2024/01/31 19:20:39;;;;;;;;;;;;;;;;;;;;;
2024/01/31 19:23:31;;;;;;;7.13;4.35;;;;;;;6.00;81.78;102599.97;4936933;29;20543;-94
2024/01/31 19:29:55;;;;;;;;;;;;;;;;;;;;;
2024/01/31 19:32:30;;;;;;;6.05;3.95;;;;;;;6.02;82.17;102598.28;5119650;22;20056;-92
2024/01/31 19:36:04;;;;;;;;;;;;;;;;;;;;;
2024/01/31 19:50:23;;;;;;;;;;;;;;;;;;;;;
2024/01/31 19:52:53;;;;;;;6.88;5.05;;;;;;;6.13;82.19;102591.66;4917330;29;20102;-93